Time;durP1;ratioP1;P1;durP2;ratioP2;P2;SDS_P1;SDS_P2;PMS_P1;PMS_P2;Temp;Humidity;BMP_temperature;BMP_pressure;BME280_temperature;BME280_humidity;BME280_pressure;Samples;Min_cycle;Max_cycle;Signal;HPM_P1;HPM_P2
2020/11/20 00:00:24;;;;;;;4.699999;1.75;;;;;;;5.92;87.81152;96249.47;;;;
2020/11/20 00:01:24;;;;;;;4.699999;1.75;;;;;;;5.92;87.81152;96249.47;;;;
2020/11/20 00:02:24;;;;;;;4.699999;1.75;;;;;;;5.92;87.81152;96249.47;;;;
2020/11/20 00:03:25;;;;;;;4.699999;1.75;;;;;;;5.92;87.81152;96249.47;;;;
2020/11/20 00:04:25;;;;;;;4.699999;1.75;;;;;;;5.92;87.81152;96249.47;;;;
2020/11/20 00:05:26;;;;;;;4.699999;1.75;;;;;;;5.92;87.81152;96249.47;;;;
2020/11/20 00:06:27;;;;;;;4.699999;1.75;;;;;;;5.92;87.81152;96249.47;;;;
2020/11/20 00:07:27;;;;;;;4.600001;1.95;;;;;;;5.92;87.95898;96256.17;;;;
2020/11/20 00:08:28;;;;;;;4.600001;1.95;;;;;;;5.92;87.95898;96256.17;;;;
2020/11/20 00:09:28;;;;;;;4.600001;1.95;;;;;;;5.92;87.95898;96256.17;;;;
2020/11/20 00:10:29;;;;;;;4.600001;1.95;;;;;;;5.92;87.95898;96256.17;;;;
2020/11/20 00:11:29;;;;;;;4.600001;1.95;;;;;;;5.92;87.95898;96256.17;;;;
2020/11/20 00:12:30;;;;;;;4.600001;1.95;;;;;;;5.92;87.95898;96256.17;;;;
2020/11/20 00:13:30;;;;;;;4.600001;1.95;;;;;;;5.92;87.95898;96256.17;;;;
2020/11/20 00:14:31;;;;;;;4.600001;1.95;;;;;;;5.92;87.95898;96256.17;;;;
2020/11/20 00:15:32;;;;;;;4.600001;1.95;;;;;;;5.92;87.95898;96256.17;;;;
2020/11/20 00:16:32;;;;;;;4.600001;1.95;;;;;;;5.92;87.95898;96256.17;;;;
2020/11/20 00:17:33;;;;;;;3.25;1.85;;;;;;;5.91;87.83105;96250.08;;;;
2020/11/20 00:18:34;;;;;;;3.25;1.85;;;;;;;5.91;87.83105;96250.08;;;;
2020/11/20 00:19:35;;;;;;;3.25;1.85;;;;;;;5.91;87.83105;96250.08;;;;
2020/11/20 00:20:35;;;;;;;3.25;1.85;;;;;;;5.91;87.83105;96250.08;;;;
2020/11/20 00:21:36;;;;;;;3.25;1.85;;;;;;;5.91;87.83105;96250.08;;;;
2020/11/20 00:22:36;;;;;;;3.25;1.85;;;;;;;5.91;87.83105;96250.08;;;;
2020/11/20 00:23:37;;;;;;;3.25;1.85;;;;;;;5.91;87.83105;96250.08;;;;
2020/11/20 00:24:38;;;;;;;3.25;1.85;;;;;;;5.91;87.83105;96250.08;;;;
2020/11/20 00:25:38;;;;;;;3.25;1.85;;;;;;;5.91;87.83105;96250.08;;;;
2020/11/20 00:26:39;;;;;;;3.25;1.85;;;;;;;5.91;87.83105;96250.08;;;;
2020/11/20 00:27:39;;;;;;;3.25;1.85;;;;;;;5.91;87.83105;96250.08;;;;
2020/11/20 00:28:40;;;;;;;5.6;2.1;;;;;;;5.91;87.9873;96242.53;;;;
2020/11/20 00:29:40;;;;;;;5.6;2.1;;;;;;;5.91;87.9873;96242.53;;;;
2020/11/20 00:30:41;;;;;;;5.6;2.1;;;;;;;5.91;87.9873;96242.53;;;;
2020/11/20 00:31:41;;;;;;;5.6;2.1;;;;;;;5.91;87.9873;96242.53;;;;
2020/11/20 00:32:45;;;;;;;5.6;2.1;;;;;;;5.91;87.9873;96242.53;;;;
2020/11/20 00:33:45;;;;;;;5.6;2.1;;;;;;;5.91;87.9873;96242.53;;;;
2020/11/20 00:34:46;;;;;;;5.6;2.1;;;;;;;5.91;87.9873;96242.53;;;;
2020/11/20 00:35:47;;;;;;;5.6;2.1;;;;;;;5.91;87.9873;96242.53;;;;
2020/11/20 00:36:47;;;;;;;5.6;2.1;;;;;;;5.91;87.9873;96242.53;;;;
2020/11/20 00:37:48;;;;;;;5.6;2.1;;;;;;;5.91;87.9873;96242.53;;;;
2020/11/20 00:38:48;;;;;;;3.95;1.95;;;;;;;5.85;88.14453;96240.08;;;;
2020/11/20 00:39:49;;;;;;;3.95;1.95;;;;;;;5.85;88.14453;96240.08;;;;
2020/11/20 00:40:49;;;;;;;3.95;1.95;;;;;;;5.85;88.14453;96240.08;;;;
2020/11/20 00:41:50;;;;;;;3.95;1.95;;;;;;;5.85;88.14453;96240.08;;;;
2020/11/20 00:42:50;;;;;;;3.95;1.95;;;;;;;5.85;88.14453;96240.08;;;;
2020/11/20 00:43:51;;;;;;;3.95;1.95;;;;;;;5.85;88.14453;96240.08;;;;
2020/11/20 00:44:51;;;;;;;3.95;1.95;;;;;;;5.85;88.14453;96240.08;;;;
2020/11/20 00:45:52;;;;;;;3.95;1.95;;;;;;;5.85;88.14453;96240.08;;;;
2020/11/20 00:46:52;;;;;;;3.95;1.95;;;;;;;5.85;88.14453;96240.08;;;;
2020/11/20 00:47:53;;;;;;;3.95;1.95;;;;;;;5.85;88.14453;96240.08;;;;
2020/11/20 00:48:54;;;;;;;3.95;1.95;;;;;;;5.85;88.14453;96240.08;;;;
2020/11/20 00:49:54;;;;;;;6.650001;2.4;;;;;;;5.78;88.4873;96236.02;;;;
2020/11/20 00:50:55;;;;;;;6.650001;2.4;;;;;;;5.78;88.4873;96236.02;;;;
2020/11/20 00:51:55;;;;;;;6.650001;2.4;;;;;;;5.78;88.4873;96236.02;;;;
2020/11/20 00:52:56;;;;;;;6.650001;2.4;;;;;;;5.78;88.4873;96236.02;;;;
2020/11/20 00:53:56;;;;;;;6.650001;2.4;;;;;;;5.78;88.4873;96236.02;;;;
2020/11/20 00:54:57;;;;;;;6.650001;2.4;;;;;;;5.78;88.4873;96236.02;;;;
2020/11/20 00:55:57;;;;;;;6.650001;2.4;;;;;;;5.78;88.4873;96236.02;;;;
2020/11/20 00:56:58;;;;;;;6.650001;2.4;;;;;;;5.78;88.4873;96236.02;;;;
2020/11/20 00:57:58;;;;;;;6.650001;2.4;;;;;;;5.78;88.4873;96236.02;;;;
2020/11/20 00:58:59;;;;;;;6.650001;2.4;;;;;;;5.78;88.4873;96236.02;;;;
2020/11/20 00:59:59;;;;;;;5.8;2.35;;;;;;;5.76;88.69434;96242.49;;;;
2020/11/20 01:01:00;;;;;;;5.8;2.35;;;;;;;5.76;88.69434;96242.49;;;;
2020/11/20 01:02:00;;;;;;;5.8;2.35;;;;;;;5.76;88.69434;96242.49;;;;
2020/11/20 01:03:01;;;;;;;5.8;2.35;;;;;;;5.76;88.69434;96242.49;;;;
2020/11/20 01:04:09;;;;;;;5.8;2.35;;;;;;;5.76;88.69434;96242.49;;;;
2020/11/20 01:05:10;;;;;;;5.8;2.35;;;;;;;5.76;88.69434;96242.49;;;;
2020/11/20 01:06:10;;;;;;;5.8;2.35;;;;;;;5.76;88.69434;96242.49;;;;
2020/11/20 01:07:11;;;;;;;5.8;2.35;;;;;;;5.76;88.69434;96242.49;;;;
2020/11/20 01:08:13;;;;;;;5.8;2.35;;;;;;;5.76;88.69434;96242.49;;;;
2020/11/20 01:09:13;;;;;;;5.8;2.35;;;;;;;5.76;88.69434;96242.49;;;;
2020/11/20 01:10:15;;;;;;;5.8;2.35;;;;;;;5.76;88.69434;96242.49;;;;
2020/11/20 01:11:15;;;;;;;5.650001;2.5;;;;;;;5.83;88.89941;96251.48;;;;
2020/11/20 01:12:16;;;;;;;5.650001;2.5;;;;;;;5.83;88.89941;96251.48;;;;
2020/11/20 01:13:16;;;;;;;5.650001;2.5;;;;;;;5.83;88.89941;96251.48;;;;
2020/11/20 01:14:18;;;;;;;5.650001;2.5;;;;;;;5.83;88.89941;96251.48;;;;
2020/11/20 01:15:20;;;;;;;5.650001;2.5;;;;;;;5.83;88.89941;96251.48;;;;
2020/11/20 01:16:21;;;;;;;5.650001;2.5;;;;;;;5.83;88.89941;96251.48;;;;
2020/11/20 01:17:22;;;;;;;5.650001;2.5;;;;;;;5.83;88.89941;96251.48;;;;
2020/11/20 01:18:23;;;;;;;5.650001;2.5;;;;;;;5.83;88.89941;96251.48;;;;
2020/11/20 01:19:23;;;;;;;5.650001;2.5;;;;;;;5.83;88.89941;96251.48;;;;
2020/11/20 01:20:25;;;;;;;5.650001;2.5;;;;;;;5.83;88.89941;96251.48;;;;
2020/11/20 01:21:25;;;;;;;5.35;2.35;;;;;;;5.8;88.7666;96258.95;;;;
2020/11/20 01:22:40;;;;;;;5.35;2.35;;;;;;;5.8;88.7666;96258.95;;;;
2020/11/20 01:23:41;;;;;;;5.35;2.35;;;;;;;5.8;88.7666;96258.95;;;;
2020/11/20 01:24:41;;;;;;;5.35;2.35;;;;;;;5.8;88.7666;96258.95;;;;
2020/11/20 01:25:42;;;;;;;5.35;2.35;;;;;;;5.8;88.7666;96258.95;;;;
2020/11/20 01:26:42;;;;;;;5.35;2.35;;;;;;;5.8;88.7666;96258.95;;;;
2020/11/20 01:27:43;;;;;;;5.35;2.35;;;;;;;5.8;88.7666;96258.95;;;;
2020/11/20 01:28:44;;;;;;;5.35;2.35;;;;;;;5.8;88.7666;96258.95;;;;
2020/11/20 01:29:44;;;;;;;5.35;2.35;;;;;;;5.8;88.7666;96258.95;;;;
2020/11/20 01:30:45;;;;;;;5.35;2.35;;;;;;;5.8;88.7666;96258.95;;;;
2020/11/20 01:31:45;;;;;;;5.35;2.35;;;;;;;5.8;88.7666;96258.95;;;;
2020/11/20 01:32:46;;;;;;;4.599999;2.4;;;;;;;5.72;89.27832;96254.99;;;;
2020/11/20 01:33:47;;;;;;;4.599999;2.4;;;;;;;5.72;89.27832;96254.99;;;;
2020/11/20 01:34:47;;;;;;;4.599999;2.4;;;;;;;5.72;89.27832;96254.99;;;;
2020/11/20 01:35:48;;;;;;;4.599999;2.4;;;;;;;5.72;89.27832;96254.99;;;;
2020/11/20 01:36:48;;;;;;;4.599999;2.4;;;;;;;5.72;89.27832;96254.99;;;;
2020/11/20 01:37:49;;;;;;;4.599999;2.4;;;;;;;5.72;89.27832;96254.99;;;;
2020/11/20 01:38:49;;;;;;;4.599999;2.4;;;;;;;5.72;89.27832;96254.99;;;;
2020/11/20 01:39:50;;;;;;;4.599999;2.4;;;;;;;5.72;89.27832;96254.99;;;;
2020/11/20 01:40:50;;;;;;;4.599999;2.4;;;;;;;5.72;89.27832;96254.99;;;;
2020/11/20 01:41:51;;;;;;;4.599999;2.4;;;;;;;5.72;89.27832;96254.99;;;;
2020/11/20 01:42:55;;;;;;;5.85;2.7;;;;;;;5.61;89.43555;96251.83;;;;
2020/11/20 01:43:57;;;;;;;5.85;2.7;;;;;;;5.61;89.43555;96251.83;;;;
2020/11/20 01:44:57;;;;;;;5.85;2.7;;;;;;;5.61;89.43555;96251.83;;;;
2020/11/20 01:45:58;;;;;;;5.85;2.7;;;;;;;5.61;89.43555;96251.83;;;;
2020/11/20 01:46:58;;;;;;;5.85;2.7;;;;;;;5.61;89.43555;96251.83;;;;
2020/11/20 01:47:59;;;;;;;5.85;2.7;;;;;;;5.61;89.43555;96251.83;;;;
2020/11/20 01:49:00;;;;;;;5.85;2.7;;;;;;;5.61;89.43555;96251.83;;;;
2020/11/20 01:50:01;;;;;;;5.85;2.7;;;;;;;5.61;89.43555;96251.83;;;;
2020/11/20 01:51:04;;;;;;;5.85;2.7;;;;;;;5.61;89.43555;96251.83;;;;
2020/11/20 01:52:04;;;;;;;5.85;2.7;;;;;;;5.61;89.43555;96251.83;;;;
2020/11/20 01:53:05;;;;;;;5.85;2.7;;;;;;;5.61;89.43555;96251.83;;;;
2020/11/20 01:54:05;;;;;;;7.300001;3.1;;;;;;;5.53;89.7002;96246.14;;;;
2020/11/20 01:55:06;;;;;;;7.300001;3.1;;;;;;;5.53;89.7002;96246.14;;;;
2020/11/20 01:56:06;;;;;;;7.300001;3.1;;;;;;;5.53;89.7002;96246.14;;;;
2020/11/20 01:57:07;;;;;;;7.300001;3.1;;;;;;;5.53;89.7002;96246.14;;;;
2020/11/20 01:58:08;;;;;;;7.300001;3.1;;;;;;;5.53;89.7002;96246.14;;;;
2020/11/20 01:59:08;;;;;;;7.300001;3.1;;;;;;;5.53;89.7002;96246.14;;;;
2020/11/20 02:00:09;;;;;;;7.300001;3.1;;;;;;;5.53;89.7002;96246.14;;;;
2020/11/20 02:01:09;;;;;;;7.300001;3.1;;;;;;;5.53;89.7002;96246.14;;;;
2020/11/20 02:02:10;;;;;;;7.300001;3.1;;;;;;;5.53;89.7002;96246.14;;;;
2020/11/20 02:03:11;;;;;;;7.300001;3.1;;;;;;;5.53;89.7002;96246.14;;;;
2020/11/20 02:04:11;;;;;;;7.55;2.85;;;;;;;5.39;90.07129;96245.19;;;;
2020/11/20 02:05:12;;;;;;;7.55;2.85;;;;;;;5.39;90.07129;96245.19;;;;
2020/11/20 02:06:13;;;;;;;7.55;2.85;;;;;;;5.39;90.07129;96245.19;;;;
2020/11/20 02:07:14;;;;;;;7.55;2.85;;;;;;;5.39;90.07129;96245.19;;;;
2020/11/20 02:08:15;;;;;;;7.55;2.85;;;;;;;5.39;90.07129;96245.19;;;;
2020/11/20 02:09:16;;;;;;;7.55;2.85;;;;;;;5.39;90.07129;96245.19;;;;
2020/11/20 02:10:16;;;;;;;7.55;2.85;;;;;;;5.39;90.07129;96245.19;;;;
2020/11/20 02:11:17;;;;;;;7.55;2.85;;;;;;;5.39;90.07129;96245.19;;;;
2020/11/20 02:12:17;;;;;;;7.55;2.85;;;;;;;5.39;90.07129;96245.19;;;;
2020/11/20 02:13:18;;;;;;;7.55;2.85;;;;;;;5.39;90.07129;96245.19;;;;
2020/11/20 02:14:18;;;;;;;7.55;2.85;;;;;;;5.39;90.07129;96245.19;;;;
2020/11/20 02:15:19;;;;;;;5.799999;3.1;;;;;;;5.21;90.69629;96237.48;;;;
2020/11/20 02:16:19;;;;;;;5.799999;3.1;;;;;;;5.21;90.69629;96237.48;;;;
2020/11/20 02:17:20;;;;;;;5.799999;3.1;;;;;;;5.21;90.69629;96237.48;;;;
2020/11/20 02:18:20;;;;;;;5.799999;3.1;;;;;;;5.21;90.69629;96237.48;;;;
2020/11/20 02:19:21;;;;;;;5.799999;3.1;;;;;;;5.21;90.69629;96237.48;;;;
2020/11/20 02:20:22;;;;;;;5.799999;3.1;;;;;;;5.21;90.69629;96237.48;;;;
2020/11/20 02:21:24;;;;;;;5.799999;3.1;;;;;;;5.21;90.69629;96237.48;;;;
2020/11/20 02:22:25;;;;;;;5.799999;3.1;;;;;;;5.21;90.69629;96237.48;;;;
2020/11/20 02:23:25;;;;;;;5.799999;3.1;;;;;;;5.21;90.69629;96237.48;;;;
2020/11/20 02:24:26;;;;;;;5.799999;3.1;;;;;;;5.21;90.69629;96237.48;;;;
2020/11/20 02:25:26;;;;;;;5.5;3.15;;;;;;;5.17;91.28613;96243.35;;;;
2020/11/20 02:26:29;;;;;;;5.5;3.15;;;;;;;5.17;91.28613;96243.35;;;;
2020/11/20 02:27:30;;;;;;;5.5;3.15;;;;;;;5.17;91.28613;96243.35;;;;
2020/11/20 02:28:31;;;;;;;5.5;3.15;;;;;;;5.17;91.28613;96243.35;;;;
2020/11/20 02:29:31;;;;;;;5.5;3.15;;;;;;;5.17;91.28613;96243.35;;;;
2020/11/20 02:30:32;;;;;;;5.5;3.15;;;;;;;5.17;91.28613;96243.35;;;;
2020/11/20 02:31:32;;;;;;;5.5;3.15;;;;;;;5.17;91.28613;96243.35;;;;
2020/11/20 02:32:33;;;;;;;5.5;3.15;;;;;;;5.17;91.28613;96243.35;;;;
2020/11/20 02:33:33;;;;;;;5.5;3.15;;;;;;;5.17;91.28613;96243.35;;;;
2020/11/20 02:34:34;;;;;;;5.5;3.15;;;;;;;5.17;91.28613;96243.35;;;;
2020/11/20 02:35:34;;;;;;;5.5;3.15;;;;;;;5.17;91.28613;96243.35;;;;
2020/11/20 02:36:35;;;;;;;8.749998;2.75;;;;;;;5.17;91.66602;96254.49;;;;
2020/11/20 02:37:35;;;;;;;8.749998;2.75;;;;;;;5.17;91.66602;96254.49;;;;
2020/11/20 02:38:36;;;;;;;8.749998;2.75;;;;;;;5.17;91.66602;96254.49;;;;
2020/11/20 02:39:37;;;;;;;8.749998;2.75;;;;;;;5.17;91.66602;96254.49;;;;
2020/11/20 02:40:37;;;;;;;8.749998;2.75;;;;;;;5.17;91.66602;96254.49;;;;
2020/11/20 02:41:38;;;;;;;8.749998;2.75;;;;;;;5.17;91.66602;96254.49;;;;
2020/11/20 02:42:38;;;;;;;8.749998;2.75;;;;;;;5.17;91.66602;96254.49;;;;
2020/11/20 02:43:42;;;;;;;8.749998;2.75;;;;;;;5.17;91.66602;96254.49;;;;
2020/11/20 02:44:42;;;;;;;8.749998;2.75;;;;;;;5.17;91.66602;96254.49;;;;
2020/11/20 02:45:43;;;;;;;8.749998;2.75;;;;;;;5.17;91.66602;96254.49;;;;
2020/11/20 02:46:44;;;;;;;6.15;3;;;;;;;5.19;91.78613;96249.36;;;;
2020/11/20 02:47:45;;;;;;;6.15;3;;;;;;;5.19;91.78613;96249.36;;;;
2020/11/20 02:48:46;;;;;;;6.15;3;;;;;;;5.19;91.78613;96249.36;;;;
2020/11/20 02:49:46;;;;;;;6.15;3;;;;;;;5.19;91.78613;96249.36;;;;
2020/11/20 02:50:47;;;;;;;6.15;3;;;;;;;5.19;91.78613;96249.36;;;;
2020/11/20 02:51:47;;;;;;;6.15;3;;;;;;;5.19;91.78613;96249.36;;;;
2020/11/20 02:52:48;;;;;;;6.15;3;;;;;;;5.19;91.78613;96249.36;;;;
2020/11/20 02:53:48;;;;;;;6.15;3;;;;;;;5.19;91.78613;96249.36;;;;
2020/11/20 02:54:49;;;;;;;6.15;3;;;;;;;5.19;91.78613;96249.36;;;;
2020/11/20 02:55:49;;;;;;;6.15;3;;;;;;;5.19;91.78613;96249.36;;;;
2020/11/20 02:56:50;;;;;;;6.15;3;;;;;;;5.19;91.78613;96249.36;;;;
2020/11/20 02:57:51;;;;;;;8.4;3.25;;;;;;;5.2;92.05273;96258.97;;;;
2020/11/20 02:58:51;;;;;;;8.4;3.25;;;;;;;5.2;92.05273;96258.97;;;;
2020/11/20 02:59:53;;;;;;;8.4;3.25;;;;;;;5.2;92.05273;96258.97;;;;
2020/11/20 03:00:53;;;;;;;8.4;3.25;;;;;;;5.2;92.05273;96258.97;;;;
2020/11/20 03:01:54;;;;;;;8.4;3.25;;;;;;;5.2;92.05273;96258.97;;;;
2020/11/20 03:02:54;;;;;;;8.4;3.25;;;;;;;5.2;92.05273;96258.97;;;;
2020/11/20 03:03:55;;;;;;;8.4;3.25;;;;;;;5.2;92.05273;96258.97;;;;
2020/11/20 03:04:55;;;;;;;8.4;3.25;;;;;;;5.2;92.05273;96258.97;;;;
2020/11/20 03:05:56;;;;;;;8.4;3.25;;;;;;;5.2;92.05273;96258.97;;;;
2020/11/20 03:06:56;;;;;;;8.4;3.25;;;;;;;5.2;92.05273;96258.97;;;;
2020/11/20 03:07:57;;;;;;;8.4;3.25;;;;;;;5.2;92.05273;96258.97;;;;
2020/11/20 03:08:57;;;;;;;6.2;3.2;;;;;;;5.24;92.08984;96267.47;;;;
2020/11/20 03:09:58;;;;;;;6.2;3.2;;;;;;;5.24;92.08984;96267.47;;;;
2020/11/20 03:10:58;;;;;;;6.2;3.2;;;;;;;5.24;92.08984;96267.47;;;;
2020/11/20 03:11:59;;;;;;;6.2;3.2;;;;;;;5.24;92.08984;96267.47;;;;
2020/11/20 03:12:59;;;;;;;6.2;3.2;;;;;;;5.24;92.08984;96267.47;;;;
2020/11/20 03:14:01;;;;;;;6.2;3.2;;;;;;;5.24;92.08984;96267.47;;;;
2020/11/20 03:15:01;;;;;;;6.2;3.2;;;;;;;5.24;92.08984;96267.47;;;;
2020/11/20 03:16:02;;;;;;;6.2;3.2;;;;;;;5.24;92.08984;96267.47;;;;
2020/11/20 03:17:02;;;;;;;6.2;3.2;;;;;;;5.24;92.08984;96267.47;;;;
2020/11/20 03:18:03;;;;;;;6.2;3.2;;;;;;;5.24;92.08984;96267.47;;;;
2020/11/20 03:19:04;;;;;;;12.25;3.6;;;;;;;5.27;92.27734;96266.19;;;;
2020/11/20 03:20:04;;;;;;;12.25;3.6;;;;;;;5.27;92.27734;96266.19;;;;
2020/11/20 03:21:05;;;;;;;12.25;3.6;;;;;;;5.27;92.27734;96266.19;;;;
2020/11/20 03:22:05;;;;;;;12.25;3.6;;;;;;;5.27;92.27734;96266.19;;;;
2020/11/20 03:23:06;;;;;;;12.25;3.6;;;;;;;5.27;92.27734;96266.19;;;;
2020/11/20 03:24:06;;;;;;;12.25;3.6;;;;;;;5.27;92.27734;96266.19;;;;
2020/11/20 03:25:07;;;;;;;12.25;3.6;;;;;;;5.27;92.27734;96266.19;;;;
2020/11/20 03:26:07;;;;;;;12.25;3.6;;;;;;;5.27;92.27734;96266.19;;;;
2020/11/20 03:27:08;;;;;;;12.25;3.6;;;;;;;5.27;92.27734;96266.19;;;;
2020/11/20 03:28:09;;;;;;;12.25;3.6;;;;;;;5.27;92.27734;96266.19;;;;
2020/11/20 03:29:09;;;;;;;12.25;3.6;;;;;;;5.27;92.27734;96266.19;;;;
2020/11/20 03:30:10;;;;;;;8.75;3.4;;;;;;;5.31;92.53711;96272.02;;;;
2020/11/20 03:31:10;;;;;;;8.75;3.4;;;;;;;5.31;92.53711;96272.02;;;;
2020/11/20 03:32:11;;;;;;;8.75;3.4;;;;;;;5.31;92.53711;96272.02;;;;
2020/11/20 03:33:11;;;;;;;8.75;3.4;;;;;;;5.31;92.53711;96272.02;;;;
2020/11/20 03:34:12;;;;;;;8.75;3.4;;;;;;;5.31;92.53711;96272.02;;;;
2020/11/20 03:35:13;;;;;;;8.75;3.4;;;;;;;5.31;92.53711;96272.02;;;;
2020/11/20 03:36:13;;;;;;;8.75;3.4;;;;;;;5.31;92.53711;96272.02;;;;
2020/11/20 03:37:14;;;;;;;8.75;3.4;;;;;;;5.31;92.53711;96272.02;;;;
2020/11/20 03:38:15;;;;;;;8.75;3.4;;;;;;;5.31;92.53711;96272.02;;;;
2020/11/20 03:39:15;;;;;;;8.75;3.4;;;;;;;5.31;92.53711;96272.02;;;;
2020/11/20 03:40:16;;;;;;;6.700001;3.35;;;;;;;5.4;92.4082;96277.25;;;;
2020/11/20 03:41:18;;;;;;;6.700001;3.35;;;;;;;5.4;92.4082;96277.25;;;;
2020/11/20 03:42:18;;;;;;;6.700001;3.35;;;;;;;5.4;92.4082;96277.25;;;;
2020/11/20 03:43:19;;;;;;;6.700001;3.35;;;;;;;5.4;92.4082;96277.25;;;;
2020/11/20 03:44:19;;;;;;;6.700001;3.35;;;;;;;5.4;92.4082;96277.25;;;;
2020/11/20 03:45:20;;;;;;;6.700001;3.35;;;;;;;5.4;92.4082;96277.25;;;;
2020/11/20 03:46:21;;;;;;;6.700001;3.35;;;;;;;5.4;92.4082;96277.25;;;;
2020/11/20 03:47:21;;;;;;;6.700001;3.35;;;;;;;5.4;92.4082;96277.25;;;;
2020/11/20 03:48:22;;;;;;;6.700001;3.35;;;;;;;5.4;92.4082;96277.25;;;;
2020/11/20 03:49:22;;;;;;;6.700001;3.35;;;;;;;5.4;92.4082;96277.25;;;;
2020/11/20 03:50:23;;;;;;;6.700001;3.35;;;;;;;5.4;92.4082;96277.25;;;;
2020/11/20 03:51:24;;;;;;;5.8;3.7;;;;;;;5.39;92.33301;96274.22;;;;
2020/11/20 03:52:25;;;;;;;5.8;3.7;;;;;;;5.39;92.33301;96274.22;;;;
2020/11/20 03:53:26;;;;;;;5.8;3.7;;;;;;;5.39;92.33301;96274.22;;;;
2020/11/20 03:54:26;;;;;;;5.8;3.7;;;;;;;5.39;92.33301;96274.22;;;;
2020/11/20 03:55:27;;;;;;;5.8;3.7;;;;;;;5.39;92.33301;96274.22;;;;
2020/11/20 03:56:27;;;;;;;5.8;3.7;;;;;;;5.39;92.33301;96274.22;;;;
2020/11/20 03:57:28;;;;;;;5.8;3.7;;;;;;;5.39;92.33301;96274.22;;;;
2020/11/20 03:58:28;;;;;;;5.8;3.7;;;;;;;5.39;92.33301;96274.22;;;;
2020/11/20 03:59:29;;;;;;;5.8;3.7;;;;;;;5.39;92.33301;96274.22;;;;
2020/11/20 04:00:29;;;;;;;5.8;3.7;;;;;;;5.39;92.33301;96274.22;;;;
2020/11/20 04:01:30;;;;;;;6.7;4;;;;;;;5.37;92.66504;96299;;;;
2020/11/20 04:02:30;;;;;;;6.7;4;;;;;;;5.37;92.66504;96299;;;;
2020/11/20 04:03:31;;;;;;;6.7;4;;;;;;;5.37;92.66504;96299;;;;
2020/11/20 04:04:32;;;;;;;6.7;4;;;;;;;5.37;92.66504;96299;;;;
2020/11/20 04:05:32;;;;;;;6.7;4;;;;;;;5.37;92.66504;96299;;;;
2020/11/20 04:06:34;;;;;;;6.7;4;;;;;;;5.37;92.66504;96299;;;;
2020/11/20 04:07:34;;;;;;;6.7;4;;;;;;;5.37;92.66504;96299;;;;
2020/11/20 04:08:35;;;;;;;6.7;4;;;;;;;5.37;92.66504;96299;;;;
2020/11/20 04:09:36;;;;;;;6.7;4;;;;;;;5.37;92.66504;96299;;;;
2020/11/20 04:10:36;;;;;;;6.7;4;;;;;;;5.37;92.66504;96299;;;;
2020/11/20 04:11:37;;;;;;;6.7;4;;;;;;;5.37;92.66504;96299;;;;
2020/11/20 04:12:37;;;;;;;9.699998;5;;;;;;;5.4;92.95508;96297.72;;;;
2020/11/20 04:13:38;;;;;;;9.699998;5;;;;;;;5.4;92.95508;96297.72;;;;
2020/11/20 04:14:38;;;;;;;9.699998;5;;;;;;;5.4;92.95508;96297.72;;;;
2020/11/20 04:15:39;;;;;;;9.699998;5;;;;;;;5.4;92.95508;96297.72;;;;
2020/11/20 04:16:40;;;;;;;9.699998;5;;;;;;;5.4;92.95508;96297.72;;;;
2020/11/20 04:17:40;;;;;;;9.699998;5;;;;;;;5.4;92.95508;96297.72;;;;
2020/11/20 04:18:41;;;;;;;9.699998;5;;;;;;;5.4;92.95508;96297.72;;;;
2020/11/20 04:19:41;;;;;;;9.699998;5;;;;;;;5.4;92.95508;96297.72;;;;
2020/11/20 04:20:42;;;;;;;9.699998;5;;;;;;;5.4;92.95508;96297.72;;;;
2020/11/20 04:21:42;;;;;;;9.699998;5;;;;;;;5.4;92.95508;96297.72;;;;
2020/11/20 04:22:43;;;;;;;7.9;4.900001;;;;;;;5.35;93.17578;96308.14;;;;
2020/11/20 04:23:44;;;;;;;7.9;4.900001;;;;;;;5.35;93.17578;96308.14;;;;
2020/11/20 04:24:44;;;;;;;7.9;4.900001;;;;;;;5.35;93.17578;96308.14;;;;
2020/11/20 04:25:45;;;;;;;7.9;4.900001;;;;;;;5.35;93.17578;96308.14;;;;
2020/11/20 04:26:45;;;;;;;7.9;4.900001;;;;;;;5.35;93.17578;96308.14;;;;
2020/11/20 04:27:46;;;;;;;7.9;4.900001;;;;;;;5.35;93.17578;96308.14;;;;
2020/11/20 04:28:46;;;;;;;7.9;4.900001;;;;;;;5.35;93.17578;96308.14;;;;
2020/11/20 04:29:47;;;;;;;7.9;4.900001;;;;;;;5.35;93.17578;96308.14;;;;
2020/11/20 04:30:47;;;;;;;7.9;4.900001;;;;;;;5.35;93.17578;96308.14;;;;
2020/11/20 04:31:48;;;;;;;7.9;4.900001;;;;;;;5.35;93.17578;96308.14;;;;
2020/11/20 04:32:49;;;;;;;7.9;4.900001;;;;;;;5.35;93.17578;96308.14;;;;
2020/11/20 04:33:49;;;;;;;4.7;3.05;;;;;;;5.26;93.72363;96328.38;;;;
2020/11/20 04:34:50;;;;;;;4.7;3.05;;;;;;;5.26;93.72363;96328.38;;;;
2020/11/20 04:35:50;;;;;;;4.7;3.05;;;;;;;5.26;93.72363;96328.38;;;;
2020/11/20 04:36:51;;;;;;;4.7;3.05;;;;;;;5.26;93.72363;96328.38;;;;
2020/11/20 04:37:51;;;;;;;4.7;3.05;;;;;;;5.26;93.72363;96328.38;;;;
2020/11/20 04:38:52;;;;;;;4.7;3.05;;;;;;;5.26;93.72363;96328.38;;;;
2020/11/20 04:39:52;;;;;;;4.7;3.05;;;;;;;5.26;93.72363;96328.38;;;;
2020/11/20 04:40:53;;;;;;;4.7;3.05;;;;;;;5.26;93.72363;96328.38;;;;
2020/11/20 04:41:54;;;;;;;4.7;3.05;;;;;;;5.26;93.72363;96328.38;;;;
2020/11/20 04:42:54;;;;;;;4.7;3.05;;;;;;;5.26;93.72363;96328.38;;;;
2020/11/20 04:43:55;;;;;;;4.7;3.05;;;;;;;5.26;93.72363;96328.38;;;;
2020/11/20 04:44:56;;;;;;;2.7;2.1;;;;;;;5.06;93.86914;96329.83;;;;
2020/11/20 04:45:57;;;;;;;2.7;2.1;;;;;;;5.06;93.86914;96329.83;;;;
2020/11/20 04:46:57;;;;;;;2.7;2.1;;;;;;;5.06;93.86914;96329.83;;;;
2020/11/20 04:48:03;;;;;;;2.7;2.1;;;;;;;5.06;93.86914;96329.83;;;;
2020/11/20 04:49:04;;;;;;;2.7;2.1;;;;;;;5.06;93.86914;96329.83;;;;
2020/11/20 04:50:07;;;;;;;2.7;2.1;;;;;;;5.06;93.86914;96329.83;;;;
2020/11/20 04:51:07;;;;;;;2.7;2.1;;;;;;;5.06;93.86914;96329.83;;;;
2020/11/20 04:52:09;;;;;;;2.7;2.1;;;;;;;5.06;93.86914;96329.83;;;;
2020/11/20 04:53:09;;;;;;;2.7;2.1;;;;;;;5.06;93.86914;96329.83;;;;
2020/11/20 04:54:10;;;;;;;2.7;2.1;;;;;;;5.06;93.86914;96329.83;;;;
2020/11/20 04:55:10;;;;;;;4.85;2.05;;;;;;;4.86;93.97363;96342.93;;;;
2020/11/20 04:56:11;;;;;;;4.85;2.05;;;;;;;4.86;93.97363;96342.93;;;;
2020/11/20 04:57:12;;;;;;;4.85;2.05;;;;;;;4.86;93.97363;96342.93;;;;
2020/11/20 04:58:12;;;;;;;4.85;2.05;;;;;;;4.86;93.97363;96342.93;;;;
2020/11/20 04:59:13;;;;;;;4.85;2.05;;;;;;;4.86;93.97363;96342.93;;;;
2020/11/20 05:00:15;;;;;;;4.85;2.05;;;;;;;4.86;93.97363;96342.93;;;;
2020/11/20 05:01:16;;;;;;;4.85;2.05;;;;;;;4.86;93.97363;96342.93;;;;
2020/11/20 05:02:16;;;;;;;4.85;2.05;;;;;;;4.86;93.97363;96342.93;;;;
2020/11/20 05:03:17;;;;;;;4.85;2.05;;;;;;;4.86;93.97363;96342.93;;;;
2020/11/20 05:04:17;;;;;;;4.85;2.05;;;;;;;4.86;93.97363;96342.93;;;;
2020/11/20 05:05:18;;;;;;;4.85;2.05;;;;;;;4.86;93.97363;96342.93;;;;
2020/11/20 05:06:18;;;;;;;3.35;2.75;;;;;;;4.75;94.22363;96354.43;;;;
2020/11/20 05:07:19;;;;;;;3.35;2.75;;;;;;;4.75;94.22363;96354.43;;;;
2020/11/20 05:08:20;;;;;;;3.35;2.75;;;;;;;4.75;94.22363;96354.43;;;;
2020/11/20 05:09:20;;;;;;;3.35;2.75;;;;;;;4.75;94.22363;96354.43;;;;
2020/11/20 05:10:22;;;;;;;3.35;2.75;;;;;;;4.75;94.22363;96354.43;;;;
2020/11/20 05:11:23;;;;;;;3.35;2.75;;;;;;;4.75;94.22363;96354.43;;;;
2020/11/20 05:12:23;;;;;;;3.35;2.75;;;;;;;4.75;94.22363;96354.43;;;;
2020/11/20 05:13:24;;;;;;;3.35;2.75;;;;;;;4.75;94.22363;96354.43;;;;
2020/11/20 05:14:25;;;;;;;3.35;2.75;;;;;;;4.75;94.22363;96354.43;;;;
2020/11/20 05:15:26;;;;;;;3.35;2.75;;;;;;;4.75;94.22363;96354.43;;;;
2020/11/20 05:16:26;;;;;;;3.55;2.55;;;;;;;4.65;94.50586;96373.85;;;;
2020/11/20 05:17:27;;;;;;;3.55;2.55;;;;;;;4.65;94.50586;96373.85;;;;
2020/11/20 05:18:27;;;;;;;3.55;2.55;;;;;;;4.65;94.50586;96373.85;;;;
2020/11/20 05:19:28;;;;;;;3.55;2.55;;;;;;;4.65;94.50586;96373.85;;;;
2020/11/20 05:20:29;;;;;;;3.55;2.55;;;;;;;4.65;94.50586;96373.85;;;;
2020/11/20 05:21:29;;;;;;;3.55;2.55;;;;;;;4.65;94.50586;96373.85;;;;
2020/11/20 05:22:30;;;;;;;3.55;2.55;;;;;;;4.65;94.50586;96373.85;;;;
2020/11/20 05:23:30;;;;;;;3.55;2.55;;;;;;;4.65;94.50586;96373.85;;;;
2020/11/20 05:24:32;;;;;;;3.55;2.55;;;;;;;4.65;94.50586;96373.85;;;;
2020/11/20 05:25:33;;;;;;;3.55;2.55;;;;;;;4.65;94.50586;96373.85;;;;
2020/11/20 05:26:34;;;;;;;3.55;2.55;;;;;;;4.65;94.50586;96373.85;;;;
2020/11/20 05:27:34;;;;;;;4.849999;2.7;;;;;;;4.57;94.58105;96374.28;;;;
2020/11/20 05:28:35;;;;;;;4.849999;2.7;;;;;;;4.57;94.58105;96374.28;;;;
2020/11/20 05:29:36;;;;;;;4.849999;2.7;;;;;;;4.57;94.58105;96374.28;;;;
2020/11/20 05:30:36;;;;;;;4.849999;2.7;;;;;;;4.57;94.58105;96374.28;;;;
2020/11/20 05:31:37;;;;;;;4.849999;2.7;;;;;;;4.57;94.58105;96374.28;;;;
2020/11/20 05:32:38;;;;;;;4.849999;2.7;;;;;;;4.57;94.58105;96374.28;;;;
2020/11/20 05:33:39;;;;;;;4.849999;2.7;;;;;;;4.57;94.58105;96374.28;;;;
2020/11/20 05:34:41;;;;;;;4.849999;2.7;;;;;;;4.57;94.58105;96374.28;;;;
2020/11/20 05:35:43;;;;;;;4.849999;2.7;;;;;;;4.57;94.58105;96374.28;;;;
2020/11/20 05:36:44;;;;;;;4.849999;2.7;;;;;;;4.57;94.58105;96374.28;;;;
2020/11/20 05:37:44;;;;;;;5.299999;2.85;;;;;;;4.44;94.5127;96389.53;;;;
2020/11/20 05:38:49;;;;;;;5.299999;2.85;;;;;;;4.44;94.5127;96389.53;;;;
2020/11/20 05:39:49;;;;;;;5.299999;2.85;;;;;;;4.44;94.5127;96389.53;;;;
2020/11/20 05:40:51;;;;;;;5.299999;2.85;;;;;;;4.44;94.5127;96389.53;;;;
2020/11/20 05:41:56;;;;;;;5.299999;2.85;;;;;;;4.44;94.5127;96389.53;;;;
2020/11/20 05:43:06;;;;;;;5.299999;2.85;;;;;;;4.44;94.5127;96389.53;;;;
2020/11/20 05:44:08;;;;;;;5.299999;2.85;;;;;;;4.44;94.5127;96389.53;;;;
2020/11/20 05:45:15;;;;;;;5.299999;2.85;;;;;;;4.44;94.5127;96389.53;;;;
2020/11/20 05:46:22;;;;;;;5.299999;2.85;;;;;;;4.44;94.5127;96389.53;;;;
2020/11/20 05:47:26;;;;;;;5.299999;2.85;;;;;;;4.44;94.5127;96389.53;;;;
2020/11/20 05:48:28;;;;;;;5.55;2.7;;;;;;;4.35;94.83789;96402.2;;;;